createdAt,value
2023-01-29T00:00:21.777Z,18.40
2023-01-29T00:02:48.497Z,18.30
2023-01-29T00:05:26.964Z,18.30
2023-01-29T00:07:55.539Z,18.30
2023-01-29T00:10:23.279Z,18.30
2023-01-29T00:12:51.656Z,18.30
2023-01-29T00:15:18.781Z,18.20
2023-01-29T00:17:45.464Z,18.20
2023-01-29T00:20:12.514Z,18.10
2023-01-29T00:22:39.263Z,18.10
2023-01-29T00:25:06.541Z,18.10
2023-01-29T00:27:33.242Z,18.00
2023-01-29T00:30:11.876Z,18.00
2023-01-29T00:32:42.003Z,18.00
2023-01-29T00:35:09.677Z,18.00
2023-01-29T00:37:36.414Z,17.90
2023-01-29T00:40:04.254Z,17.90
2023-01-29T00:42:49.486Z,17.90
2023-01-29T00:45:17.022Z,17.90
2023-01-29T00:47:45.386Z,17.80
2023-01-29T00:50:13.375Z,17.80
2023-01-29T00:52:43.432Z,17.80
2023-01-29T00:55:11.058Z,17.70
2023-01-29T00:57:38.942Z,17.70
2023-01-29T01:00:09.269Z,17.70
2023-01-29T01:02:54.813Z,17.70
2023-01-29T01:05:21.689Z,17.60
2023-01-29T01:07:50.822Z,17.60
2023-01-29T01:10:21.016Z,17.60
2023-01-29T01:13:05.910Z,17.60
2023-01-29T01:15:39.767Z,17.50
2023-01-29T01:18:06.777Z,17.50
2023-01-29T01:20:35.944Z,17.50
2023-01-29T01:23:03.625Z,17.40
2023-01-29T01:25:30.412Z,17.40
2023-01-29T01:30:27.278Z,17.40
2023-01-29T01:32:54.004Z,17.30
2023-01-29T01:35:20.867Z,17.30
2023-01-29T01:37:47.652Z,17.30
2023-01-29T01:40:19.417Z,17.30
2023-01-29T01:42:57.748Z,17.30
2023-01-29T01:45:37.109Z,17.20
2023-01-29T01:48:25.828Z,17.20
2023-01-29T01:51:06.262Z,17.20
2023-01-29T01:54:07.614Z,17.10
2023-01-29T01:56:41.531Z,17.10
2023-01-29T01:59:11.913Z,17.00
2023-01-29T02:01:42.877Z,17.00
2023-01-29T02:04:33.871Z,16.90
2023-01-29T02:07:22.866Z,16.90
2023-01-29T02:09:58.233Z,16.90
2023-01-29T02:12:25.144Z,16.90
2023-01-29T02:14:52.273Z,16.80
2023-01-29T02:17:20.480Z,16.80
2023-01-29T02:19:47.324Z,16.80
2023-01-29T02:22:38.855Z,16.80
2023-01-29T02:25:35.745Z,16.80
2023-01-29T02:28:17.338Z,16.70
2023-01-29T02:31:02.897Z,16.70
2023-01-29T02:33:50.749Z,16.70
2023-01-29T02:36:34.051Z,16.70
2023-01-29T02:39:34.134Z,16.70
2023-01-29T02:42:15.000Z,16.70
2023-01-29T02:44:58.556Z,16.60
2023-01-29T02:47:58.521Z,16.60
2023-01-29T02:50:47.069Z,16.60
2023-01-29T02:53:41.109Z,16.60
2023-01-29T02:56:12.982Z,16.60
2023-01-29T02:58:50.533Z,16.50
2023-01-29T03:01:37.472Z,16.50
2023-01-29T03:04:15.221Z,16.50
2023-01-29T03:07:02.943Z,16.50
2023-01-29T03:09:37.477Z,16.50
2023-01-29T03:12:33.995Z,16.40
2023-01-29T03:15:16.691Z,16.40
2023-01-29T03:18:02.060Z,16.40
2023-01-29T03:20:40.832Z,16.40
2023-01-29T03:23:18.721Z,16.40
2023-01-29T03:26:04.557Z,16.30
2023-01-29T03:28:51.442Z,16.30
2023-01-29T03:31:37.976Z,16.30
2023-01-29T03:34:24.092Z,16.30
2023-01-29T03:37:02.107Z,16.30
2023-01-29T03:39:29.921Z,16.20
2023-01-29T03:42:14.661Z,16.20
2023-01-29T03:45:00.304Z,16.20
2023-01-29T03:48:09.337Z,16.20
2023-01-29T03:50:42.222Z,16.20
2023-01-29T03:53:16.199Z,16.20
2023-01-29T03:56:07.457Z,16.10
2023-01-29T03:58:47.531Z,16.10
2023-01-29T04:01:27.424Z,16.10
2023-01-29T04:04:00.923Z,16.10
2023-01-29T04:06:31.701Z,16.10
2023-01-29T04:09:30.716Z,16.10
2023-01-29T04:12:20.046Z,16.10
2023-01-29T04:14:49.394Z,16.00
2023-01-29T04:17:25.627Z,16.00
2023-01-29T04:20:04.265Z,16.00
2023-01-29T04:22:38.091Z,16.00
2023-01-29T04:25:15.683Z,16.00
2023-01-29T04:28:06.165Z,16.00
2023-01-29T04:30:56.831Z,15.90
2023-01-29T04:33:42.817Z,15.90
2023-01-29T04:36:36.649Z,15.90
2023-01-29T04:39:22.892Z,15.90
2023-01-29T04:42:12.991Z,15.90
2023-01-29T04:45:11.438Z,15.90
2023-01-29T04:47:48.445Z,15.80
2023-01-29T04:50:22.345Z,15.80
2023-01-29T04:53:07.158Z,15.80
2023-01-29T04:56:01.833Z,15.80
2023-01-29T04:58:43.542Z,15.80
2023-01-29T05:01:15.650Z,15.80
2023-01-29T05:03:46.422Z,15.80
2023-01-29T05:06:14.998Z,15.70
2023-01-29T05:08:42.249Z,15.70
2023-01-29T05:11:09.790Z,15.70
2023-01-29T05:13:39.693Z,15.70
2023-01-29T05:16:14.510Z,15.70
2023-01-29T05:18:41.430Z,15.70
2023-01-29T05:21:09.440Z,15.70
2023-01-29T05:23:36.447Z,15.70
2023-01-29T05:26:04.309Z,15.70
2023-01-29T05:28:31.301Z,15.60
2023-01-29T05:30:58.400Z,15.60
2023-01-29T05:33:30.318Z,15.60
2023-01-29T05:35:59.409Z,15.60
2023-01-29T05:38:26.485Z,15.60
2023-01-29T05:40:53.967Z,15.60
2023-01-29T05:43:23.278Z,15.60
2023-01-29T05:46:01.081Z,15.60
2023-01-29T05:48:29.308Z,15.60
2023-01-29T05:51:05.616Z,15.60
2023-01-29T05:53:32.932Z,15.50
2023-01-29T05:56:04.213Z,15.50
2023-01-29T05:58:32.143Z,15.50
2023-01-29T06:01:07.295Z,15.50
2023-01-29T06:03:34.010Z,15.50
2023-01-29T06:06:02.285Z,15.50
2023-01-29T06:08:29.021Z,15.50
2023-01-29T06:10:55.693Z,15.50
2023-01-29T06:13:23.691Z,15.40
2023-01-29T06:15:50.580Z,15.40
2023-01-29T06:18:17.370Z,15.40
2023-01-29T06:20:44.081Z,15.40
2023-01-29T06:23:10.721Z,15.40
2023-01-29T06:25:37.478Z,15.40
2023-01-29T06:28:04.357Z,15.40
2023-01-29T06:30:31.826Z,15.40
2023-01-29T06:33:01.494Z,15.40
2023-01-29T06:35:28.485Z,15.40
2023-01-29T06:37:56.494Z,15.40
2023-01-29T06:40:23.189Z,15.30
2023-01-29T06:42:49.910Z,15.30
2023-01-29T06:45:16.708Z,15.30
2023-01-29T06:47:43.366Z,15.30
2023-01-29T06:50:10.759Z,15.30
2023-01-29T06:52:37.455Z,15.30
2023-01-29T06:55:04.498Z,15.30
2023-01-29T06:57:31.172Z,15.30
2023-01-29T06:59:57.853Z,15.30
2023-01-29T07:02:24.578Z,15.30
2023-01-29T07:04:51.258Z,15.20
2023-01-29T07:07:18.462Z,15.20
2023-01-29T07:09:45.193Z,15.20
2023-01-29T07:12:12.011Z,15.20
2023-01-29T07:14:38.708Z,15.20
2023-01-29T07:17:05.438Z,15.20
2023-01-29T07:19:32.165Z,15.20
2023-01-29T07:22:02.307Z,15.20
2023-01-29T07:24:29.107Z,15.20
2023-01-29T07:26:56.022Z,15.20
2023-01-29T07:29:22.737Z,15.20
2023-01-29T07:31:49.564Z,15.20
2023-01-29T07:34:16.352Z,15.10
2023-01-29T07:36:43.053Z,15.10
2023-01-29T07:39:09.778Z,15.10
2023-01-29T07:41:36.426Z,15.10
2023-01-29T07:44:10.910Z,15.10
2023-01-29T07:46:37.634Z,15.10
2023-01-29T07:49:04.334Z,15.10
2023-01-29T07:51:31.032Z,15.10
2023-01-29T07:53:57.714Z,15.10
2023-01-29T07:56:24.551Z,15.10
2023-01-29T07:58:51.289Z,15.10
2023-01-29T08:01:18.087Z,15.10
2023-01-29T08:03:44.853Z,15.00
2023-01-29T08:06:11.606Z,15.00
2023-01-29T08:08:38.352Z,15.00
2023-01-29T08:11:05.710Z,15.00
2023-01-29T08:13:33.071Z,15.00
2023-01-29T08:16:03.803Z,15.00
2023-01-29T08:18:31.537Z,15.00
2023-01-29T08:21:02.039Z,15.00
2023-01-29T08:23:28.895Z,15.00
2023-01-29T08:25:55.861Z,14.90
2023-01-29T08:28:22.669Z,14.90
2023-01-29T08:30:49.575Z,14.90
2023-01-29T08:33:17.665Z,14.90
2023-01-29T08:35:50.606Z,14.90
2023-01-29T08:38:18.087Z,14.90
2023-01-29T08:40:44.745Z,14.90
2023-01-29T08:43:13.340Z,14.90
2023-01-29T08:45:44.242Z,14.90
2023-01-29T08:48:11.633Z,14.90
2023-01-29T08:50:38.836Z,14.90
2023-01-29T08:53:07.901Z,14.90
2023-01-29T08:55:41.508Z,14.90
2023-01-29T08:58:11.367Z,14.90
2023-01-29T09:00:38.680Z,14.90
2023-01-29T09:03:07.627Z,14.90
2023-01-29T09:05:35.629Z,14.90
2023-01-29T09:08:02.474Z,14.90
2023-01-29T09:10:29.143Z,14.90
2023-01-29T09:12:55.879Z,14.90
2023-01-29T09:15:23.231Z,14.90
2023-01-29T09:17:49.978Z,14.90
2023-01-29T09:20:17.919Z,14.90
2023-01-29T09:22:45.067Z,14.90
2023-01-29T09:25:12.097Z,14.90
2023-01-29T09:27:38.978Z,14.90
2023-01-29T09:30:06.569Z,14.90
2023-01-29T09:35:22.521Z,14.90
2023-01-29T09:37:50.029Z,14.90
2023-01-29T09:40:30.854Z,14.90
2023-01-29T09:43:22.385Z,14.90
2023-01-29T09:46:23.640Z,14.90
2023-01-29T09:49:00.593Z,14.90
2023-01-29T09:51:35.317Z,14.80
2023-01-29T09:54:07.561Z,14.80
2023-01-29T09:56:35.218Z,14.80
2023-01-29T09:59:02.170Z,14.80
2023-01-29T10:01:34.949Z,14.80
2023-01-29T10:04:13.482Z,14.80
2023-01-29T10:07:03.096Z,14.80
2023-01-29T10:09:35.540Z,14.80
2023-01-29T10:12:30.790Z,14.80
2023-01-29T10:15:33.781Z,14.80
2023-01-29T10:18:03.456Z,14.80
2023-01-29T10:20:58.370Z,14.80
2023-01-29T10:23:34.593Z,14.80
2023-01-29T10:26:01.848Z,14.80
2023-01-29T10:28:34.006Z,14.80
2023-01-29T10:31:20.622Z,14.80
2023-01-29T10:34:02.046Z,14.80
2023-01-29T10:36:43.103Z,14.80
2023-01-29T10:39:20.430Z,14.80
2023-01-29T10:41:53.976Z,14.80
2023-01-29T10:44:27.558Z,14.80
2023-01-29T10:47:23.621Z,14.80
2023-01-29T10:49:59.457Z,14.80
2023-01-29T10:53:03.661Z,14.70
2023-01-29T10:55:49.095Z,14.70
2023-01-29T10:58:30.736Z,14.70
2023-01-29T11:00:58.174Z,14.70
2023-01-29T11:03:29.370Z,14.70
2023-01-29T11:06:07.989Z,14.70
2023-01-29T11:08:44.015Z,14.70
2023-01-29T11:11:18.848Z,14.70
2023-01-29T11:14:02.786Z,14.70
2023-01-29T11:16:30.422Z,14.70
2023-01-29T11:18:59.510Z,14.70
2023-01-29T11:21:28.242Z,14.70
2023-01-29T11:24:15.304Z,14.70
2023-01-29T11:26:44.295Z,14.70
2023-01-29T11:29:41.987Z,14.70
2023-01-29T11:32:13.103Z,14.70
2023-01-29T11:35:19.782Z,14.70
2023-01-29T11:37:47.046Z,14.60
2023-01-29T11:40:19.781Z,14.60
2023-01-29T11:42:47.650Z,14.60
2023-01-29T11:45:20.450Z,14.60
2023-01-29T11:47:54.176Z,14.70
2023-01-29T11:50:24.794Z,14.70
2023-01-29T11:52:51.795Z,14.70
2023-01-29T11:55:22.522Z,14.70
2023-01-29T11:58:03.725Z,14.70
2023-01-29T12:00:35.209Z,14.70
2023-01-29T12:03:07.696Z,14.70
2023-01-29T12:05:34.659Z,14.70
2023-01-29T12:08:02.459Z,14.70
2023-01-29T12:10:37.686Z,14.70
2023-01-29T12:13:27.801Z,14.70
2023-01-29T12:16:45.331Z,14.70
2023-01-29T12:19:15.992Z,14.70
2023-01-29T12:21:45.681Z,14.70
2023-01-29T12:24:36.252Z,14.60
2023-01-29T12:27:21.113Z,14.70
2023-01-29T12:30:06.677Z,14.70
2023-01-29T12:32:55.450Z,14.60
2023-01-29T12:35:26.149Z,14.60
2023-01-29T12:38:02.397Z,14.60
2023-01-29T12:40:40.213Z,14.60
2023-01-29T12:43:18.751Z,14.70
2023-01-29T12:45:52.150Z,14.60
2023-01-29T12:48:27.305Z,14.60
2023-01-29T12:50:59.193Z,14.60
2023-01-29T12:53:57.282Z,14.60
2023-01-29T12:56:36.907Z,14.60
2023-01-29T12:59:16.486Z,14.60
2023-01-29T13:01:56.305Z,14.60
2023-01-29T13:04:37.914Z,14.60
2023-01-29T13:07:19.203Z,14.60
2023-01-29T13:09:50.831Z,14.60
2023-01-29T13:12:20.661Z,14.60
2023-01-29T13:15:02.633Z,14.60
2023-01-29T13:17:37.698Z,14.60
2023-01-29T13:20:23.024Z,14.60
2023-01-29T13:22:52.667Z,14.60
2023-01-29T13:25:20.390Z,14.60
2023-01-29T13:27:48.616Z,14.60
2023-01-29T13:30:32.987Z,14.60
2023-01-29T13:33:11.455Z,14.60
2023-01-29T13:35:44.880Z,14.60
2023-01-29T13:38:33.229Z,14.60
2023-01-29T13:41:06.425Z,14.60
2023-01-29T13:43:37.314Z,14.60
2023-01-29T13:46:14.425Z,14.60
2023-01-29T13:48:43.838Z,14.60
2023-01-29T13:51:19.548Z,14.60
2023-01-29T13:53:57.017Z,14.60
2023-01-29T13:56:32.906Z,14.60
2023-01-29T13:59:01.708Z,14.60
2023-01-29T14:01:46.759Z,14.60
2023-01-29T14:04:21.473Z,14.60
2023-01-29T14:07:28.402Z,14.60
2023-01-29T14:10:14.280Z,14.60
2023-01-29T14:12:42.700Z,14.60
2023-01-29T14:15:21.556Z,14.60
2023-01-29T14:18:36.179Z,14.60
2023-01-29T14:21:07.028Z,14.60
2023-01-29T14:23:41.255Z,14.60
2023-01-29T14:26:22.493Z,14.50
2023-01-29T14:28:58.554Z,14.60
2023-01-29T14:31:35.221Z,14.50
2023-01-29T14:34:06.425Z,14.60
2023-01-29T14:36:44.534Z,14.50
2023-01-29T14:39:25.716Z,14.50
2023-01-29T14:41:52.881Z,14.60
2023-01-29T14:44:44.119Z,14.50
2023-01-29T14:47:37.295Z,14.50
2023-01-29T14:50:32.814Z,14.50
2023-01-29T14:53:01.758Z,14.50
2023-01-29T14:55:44.855Z,14.50
2023-01-29T14:58:16.325Z,14.50
2023-01-29T15:00:45.990Z,14.50
2023-01-29T15:03:20.663Z,14.50
2023-01-29T15:05:48.874Z,14.50
2023-01-29T15:08:35.176Z,14.50
2023-01-29T15:11:26.673Z,14.50
2023-01-29T15:14:23.707Z,14.50
2023-01-29T15:17:02.324Z,14.50
2023-01-29T15:19:35.840Z,14.40
2023-01-29T15:22:08.005Z,14.40
2023-01-29T15:24:36.238Z,14.40
2023-01-29T15:27:03.826Z,14.40
2023-01-29T15:29:30.863Z,14.40
2023-01-29T15:31:58.502Z,14.40
2023-01-29T15:34:25.515Z,14.40
2023-01-29T15:36:52.238Z,14.40
2023-01-29T15:39:22.691Z,14.40
2023-01-29T15:41:51.711Z,14.40
2023-01-29T15:44:23.069Z,14.40
2023-01-29T15:46:54.773Z,14.40
2023-01-29T15:49:36.346Z,14.40
2023-01-29T15:52:08.923Z,14.40
2023-01-29T15:54:36.145Z,14.40
2023-01-29T15:57:03.847Z,14.40
2023-01-29T15:59:38.183Z,14.40
2023-01-29T16:02:36.696Z,14.40
2023-01-29T16:05:25.577Z,14.40
2023-01-29T16:07:54.119Z,14.40
2023-01-29T16:10:22.675Z,14.30
2023-01-29T16:12:53.712Z,14.30
2023-01-29T16:15:36.716Z,14.30
2023-01-29T16:18:25.107Z,14.30
2023-01-29T16:20:56.160Z,14.30
2023-01-29T16:23:27.731Z,14.30
2023-01-29T16:26:01.231Z,14.30
2023-01-29T16:28:28.193Z,14.30
2023-01-29T16:30:57.924Z,14.30
2023-01-29T16:33:35.640Z,14.30
2023-01-29T16:36:11.463Z,14.30
2023-01-29T16:38:43.046Z,14.30
2023-01-29T16:41:21.734Z,14.30
2023-01-29T16:43:51.183Z,14.30
2023-01-29T16:46:23.978Z,14.20
2023-01-29T16:48:50.969Z,14.30
2023-01-29T16:51:30.221Z,14.20
2023-01-29T16:54:01.963Z,14.20
2023-01-29T16:56:31.754Z,14.30
2023-01-29T16:58:59.064Z,14.20
2023-01-29T17:01:28.538Z,14.20
2023-01-29T17:04:17.333Z,14.20
2023-01-29T17:06:48.459Z,14.20
2023-01-29T17:09:33.705Z,14.20
2023-01-29T17:12:05.063Z,14.20
2023-01-29T17:14:33.545Z,14.20
2023-01-29T17:17:14.084Z,14.20
2023-01-29T17:19:40.885Z,14.20
2023-01-29T17:22:14.422Z,14.20
2023-01-29T17:24:42.095Z,14.20
2023-01-29T17:27:18.721Z,14.20
2023-01-29T17:29:45.676Z,14.20
2023-01-29T17:32:12.654Z,14.20
2023-01-29T17:34:39.637Z,14.20
2023-01-29T17:37:06.336Z,14.20
2023-01-29T17:39:33.073Z,14.20
2023-01-29T17:42:01.267Z,14.10
2023-01-29T17:44:28.084Z,14.10
2023-01-29T17:46:55.081Z,14.10
2023-01-29T17:49:24.437Z,14.10
2023-01-29T17:51:55.544Z,14.20
2023-01-29T17:54:23.350Z,14.20
2023-01-29T17:56:50.588Z,14.30
2023-01-29T17:59:19.506Z,14.30
2023-01-29T18:01:47.016Z,14.40
2023-01-29T18:04:14.007Z,14.60
2023-01-29T18:06:41.961Z,14.70
2023-01-29T18:09:13.738Z,14.80
2023-01-29T18:11:41.385Z,14.90
2023-01-29T18:14:14.009Z,15.00
2023-01-29T18:16:42.730Z,15.10
2023-01-29T18:19:15.287Z,15.20
2023-01-29T18:21:42.055Z,15.20
2023-01-29T18:24:08.875Z,15.30
2023-01-29T18:26:36.039Z,15.40
2023-01-29T18:29:03.428Z,15.50
2023-01-29T18:31:30.150Z,15.60
2023-01-29T18:33:57.063Z,15.80
2023-01-29T18:36:24.049Z,15.90
2023-01-29T18:38:51.035Z,16.20
2023-01-29T18:41:17.852Z,16.40
2023-01-29T18:43:44.665Z,16.70
2023-01-29T18:46:11.494Z,17.10
2023-01-29T18:48:38.611Z,17.50
2023-01-29T18:51:05.992Z,17.90
2023-01-29T18:53:33.417Z,18.30
2023-01-29T18:56:05.499Z,18.70
2023-01-29T18:58:36.394Z,19.10
2023-01-29T19:01:10.065Z,19.40
2023-01-29T19:03:37.687Z,19.80
2023-01-29T19:06:07.666Z,20.00
2023-01-29T19:08:35.019Z,20.30
2023-01-29T19:11:03.871Z,20.50
2023-01-29T19:13:34.583Z,20.70
2023-01-29T19:16:02.353Z,20.80
2023-01-29T19:18:29.348Z,20.90
2023-01-29T19:20:56.125Z,21.10
2023-01-29T19:23:22.934Z,21.20
2023-01-29T19:25:49.724Z,21.30
2023-01-29T19:28:16.443Z,21.30
2023-01-29T19:30:43.193Z,21.40
2023-01-29T19:33:10.501Z,21.50
2023-01-29T19:35:37.224Z,21.60
2023-01-29T19:38:04.677Z,21.80
2023-01-29T19:40:31.551Z,22.00
2023-01-29T19:42:58.665Z,22.10
2023-01-29T19:45:35.032Z,22.30
2023-01-29T19:48:14.728Z,22.40
2023-01-29T19:50:42.285Z,22.60
2023-01-29T19:53:09.229Z,22.70
2023-01-29T19:55:35.924Z,22.80
2023-01-29T19:58:03.655Z,22.80
2023-01-29T20:00:30.418Z,22.90
2023-01-29T20:02:57.115Z,22.90
2023-01-29T20:05:26.936Z,23.00
2023-01-29T20:07:53.856Z,23.00
2023-01-29T20:10:21.222Z,23.00
2023-01-29T20:12:48.096Z,23.00
2023-01-29T20:15:15.282Z,23.00
2023-01-29T20:17:42.321Z,23.00
2023-01-29T20:20:09.918Z,22.90
2023-01-29T20:22:36.726Z,23.00
2023-01-29T20:25:04.087Z,22.90
2023-01-29T20:27:30.788Z,22.80
2023-01-29T20:29:57.594Z,22.80
2023-01-29T20:32:24.526Z,22.80
2023-01-29T20:34:52.271Z,22.70
2023-01-29T20:37:20.126Z,22.70
2023-01-29T20:39:47.064Z,22.70
2023-01-29T20:42:13.806Z,22.60
2023-01-29T20:44:40.478Z,22.60
2023-01-29T20:47:07.276Z,22.50
2023-01-29T20:49:33.986Z,22.40
2023-01-29T20:52:00.715Z,22.40
2023-01-29T20:54:29.795Z,22.30
2023-01-29T20:56:56.570Z,22.30
2023-01-29T20:59:23.309Z,22.20
2023-01-29T21:01:50.114Z,22.20
2023-01-29T21:04:16.846Z,22.10
2023-01-29T21:06:43.576Z,22.00
2023-01-29T21:09:10.269Z,21.90
2023-01-29T21:11:37.029Z,21.90
2023-01-29T21:14:03.907Z,21.80
2023-01-29T21:16:30.798Z,21.70
2023-01-29T21:18:58.572Z,21.70
2023-01-29T21:21:26.585Z,21.60
2023-01-29T21:23:53.745Z,21.60
2023-01-29T21:26:20.484Z,21.50
2023-01-29T21:28:47.368Z,21.40
2023-01-29T21:31:16.085Z,21.30
2023-01-29T21:33:43.162Z,21.30
2023-01-29T21:36:10.645Z,21.20
2023-01-29T21:38:37.462Z,21.10
2023-01-29T21:41:07.003Z,21.10
2023-01-29T21:43:33.801Z,21.00
2023-01-29T21:46:11.277Z,20.90
2023-01-29T21:48:39.273Z,20.90
2023-01-29T21:51:06.520Z,20.80
2023-01-29T21:53:33.542Z,20.70
2023-01-29T21:56:04.920Z,20.60
2023-01-29T21:58:32.182Z,20.60
2023-01-29T22:01:36.000Z,20.50
2023-01-29T22:03:47.240Z,20.40
2023-01-29T22:06:14.576Z,20.30
2023-01-29T22:08:41.292Z,20.30
2023-01-29T22:11:08.569Z,20.20
2023-01-29T22:13:35.381Z,20.20
2023-01-29T22:16:02.208Z,20.10
2023-01-29T22:18:28.983Z,20.10
2023-01-29T22:20:56.716Z,20.00
2023-01-29T22:23:24.476Z,19.90
2023-01-29T22:25:51.218Z,19.90
2023-01-29T22:28:18.744Z,19.90
2023-01-29T22:30:45.733Z,19.80
2023-01-29T22:33:12.498Z,19.70
2023-01-29T22:35:39.175Z,19.70
2023-01-29T22:38:06.553Z,19.60
2023-01-29T22:40:33.251Z,19.60
2023-01-29T22:43:00.049Z,19.50
2023-01-29T22:45:27.252Z,19.40
2023-01-29T22:47:54.004Z,19.40
2023-01-29T22:50:20.911Z,19.30
2023-01-29T22:52:54.031Z,19.30
2023-01-29T22:55:20.936Z,19.20
2023-01-29T22:57:50.723Z,19.20
2023-01-29T23:00:18.205Z,19.10
2023-01-29T23:02:47.122Z,19.10
2023-01-29T23:05:13.975Z,19.00
2023-01-29T23:07:40.678Z,19.00
2023-01-29T23:10:08.245Z,18.90
2023-01-29T23:12:34.967Z,18.90
2023-01-29T23:15:01.641Z,18.80
2023-01-29T23:17:28.310Z,18.80
2023-01-29T23:19:55.014Z,18.70
2023-01-29T23:22:21.744Z,18.70
2023-01-29T23:24:48.441Z,18.70
2023-01-29T23:27:15.353Z,18.70
2023-01-29T23:29:43.225Z,18.60
2023-01-29T23:32:11.638Z,18.50
2023-01-29T23:34:38.388Z,18.50
2023-01-29T23:37:05.387Z,18.50
2023-01-29T23:39:32.144Z,18.40
2023-01-29T23:41:58.916Z,18.40
2023-01-29T23:44:25.857Z,18.40
2023-01-29T23:46:52.765Z,18.30
2023-01-29T23:49:19.857Z,18.30
2023-01-29T23:51:50.394Z,18.20
2023-01-29T23:54:17.788Z,18.20
2023-01-29T23:56:44.988Z,18.20
2023-01-29T23:59:11.781Z,18.10
